Time;durP1;ratioP1;P1;durP2;ratioP2;P2;SDS_P1;SDS_P2;PMS_P1;PMS_P2;Temp;Humidity;BMP_temperature;BMP_pressure;BME280_temperature;BME280_humidity;BME280_pressure;Samples;Min_cycle;Max_cycle;Signal;HPM_P1;HPM_P2
2023/07/22 00:02:23;;;;;;;;;3.00;3.00;;;;;22.78;31.54;101142.56;5058214;28;45225;-64
2023/07/22 00:04:49;;;;;;;;;5.50;5.50;;;;;22.77;31.45;101143.53;5059326;28;45264;-63
2023/07/22 00:07:15;;;;;;;;;6.00;6.00;;;;;22.76;31.70;101148.97;5060186;28;46327;-62
2023/07/22 00:09:41;;;;;;;;;5.00;5.00;;;;;22.75;31.16;101140.06;5062589;28;45246;-62
2023/07/22 00:12:07;;;;;;;;;6.00;5.00;;;;;22.72;31.27;101138.44;5062482;28;45298;-62
2023/07/22 00:14:33;;;;;;;;;5.75;5.75;;;;;22.71;31.51;101134.03;5068767;28;45211;-62
2023/07/22 00:16:58;;;;;;;;;7.50;7.25;;;;;22.69;31.80;101143.97;5082976;28;46371;-62
2023/07/22 00:19:23;;;;;;;;;5.75;5.75;;;;;22.67;31.60;101137.84;5082879;28;45299;-62
2023/07/22 00:21:49;;;;;;;;;8.00;6.00;;;;;22.67;31.46;101139.66;5082896;28;45457;-62
2023/07/22 00:24:14;;;;;;;;;7.50;6.25;;;;;22.64;31.51;101138.03;5082899;28;45211;-63
2023/07/22 00:26:40;;;;;;;;;5.50;5.00;;;;;22.62;31.69;101134.56;5082239;28;46891;-62
2023/07/22 00:29:06;;;;;;;;;5.00;5.00;;;;;22.60;31.57;101138.28;5082726;28;45401;-62
2023/07/22 00:31:31;;;;;;;;;5.00;5.00;;;;;22.59;31.04;101139.25;5083027;28;45299;-63
2023/07/22 00:33:56;;;;;;;;;5.00;4.75;;;;;22.55;31.67;101139.44;5082637;28;45535;-62
2023/07/22 00:36:21;;;;;;;;;5.50;4.50;;;;;22.53;31.42;101141.34;5082693;28;45729;-63
2023/07/22 00:38:47;;;;;;;;;5.00;5.00;;;;;22.52;31.48;101136.06;5076937;28;45349;-62
2023/07/22 00:41:12;;;;;;;;;4.50;4.50;;;;;22.49;31.60;101138.91;5062415;28;45315;-62
2023/07/22 00:43:38;;;;;;;;;7.50;7.00;;;;;22.47;31.23;101135.47;5062236;28;45448;-62
2023/07/22 00:46:04;;;;;;;;;7.00;4.75;;;;;22.45;31.29;101142.72;5061974;28;45452;-62
2023/07/22 00:48:29;;;;;;;;;6.75;6.75;;;;;22.42;31.58;101132.22;5062151;28;45483;-62
2023/07/22 00:50:55;;;;;;;;;8.50;7.50;;;;;22.39;31.76;101134.09;5062341;28;45197;-62
2023/07/22 00:53:20;;;;;;;;;5.00;5.00;;;;;22.37;31.88;101133.31;5062080;28;45517;-62
2023/07/22 00:55:46;;;;;;;;;6.25;4.25;;;;;22.36;31.52;101128.91;5060390;28;46927;-62
2023/07/22 00:58:11;;;;;;;;;5.00;5.00;;;;;22.34;31.31;101127.25;5061970;28;45306;-62
2023/07/22 01:00:37;;;;;;;;;7.00;6.50;;;;;22.31;31.16;101130.97;5060943;28;45184;-62
2023/07/22 01:03:03;;;;;;;;;4.75;4.50;;;;;22.29;31.38;101132.88;5061869;28;45549;-62
2023/07/22 01:05:30;;;;;;;;;5.25;5.00;;;;;22.28;31.58;101125.78;5061785;28;46199;-62
2023/07/22 01:07:56;;;;;;;;;5.00;5.00;;;;;22.23;31.27;101115.34;5061699;28;45382;-63
2023/07/22 01:10:22;;;;;;;;;8.25;7.25;;;;;22.23;31.49;101119.84;5061722;28;45386;-63
2023/07/22 01:12:48;;;;;;;;;5.50;5.50;;;;;22.22;31.56;101123.47;5052959;28;45499;-63
2023/07/22 01:15:13;;;;;;;;;8.50;5.00;;;;;22.18;31.88;101117.44;5073381;28;46628;-60
2023/07/22 01:17:39;;;;;;;;;9.00;7.00;;;;;22.17;31.92;101123.72;5081806;28;45343;-60
2023/07/22 01:20:06;;;;;;;;;7.50;7.00;;;;;22.15;31.99;101119.41;5080810;28;45334;-60
2023/07/22 01:22:33;;;;;;;;;10.00;7.00;;;;;22.14;31.89;101115.00;5080422;28;45593;-60
2023/07/22 01:24:59;;;;;;;;;7.00;7.00;;;;;22.11;31.48;101120.53;5081417;28;45430;-60
2023/07/22 01:27:25;;;;;;;;;7.25;7.00;;;;;22.10;32.04;101121.50;5081549;28;45371;-60
2023/07/22 01:29:51;;;;;;;;;12.25;7.25;;;;;22.07;31.78;101112.72;5080504;28;45402;-60
2023/07/22 01:32:17;;;;;;;;;6.25;6.25;;;;;22.06;31.66;101119.00;5081832;28;45374;-60
2023/07/22 01:34:42;;;;;;;;;7.00;6.00;;;;;22.03;31.90;101107.59;5081620;28;47034;-60
2023/07/22 01:37:09;;;;;;;;;8.00;6.00;;;;;22.03;32.02;101108.44;5081484;28;45288;-60
2023/07/22 01:39:35;;;;;;;;;9.00;7.25;;;;;22.03;31.81;101107.59;5069491;27;45322;-60
2023/07/22 01:42:00;;;;;;;;;8.25;7.00;;;;;22.00;31.83;101107.75;5059555;28;45314;-60
2023/07/22 01:44:25;;;;;;;;;6.00;5.00;;;;;21.98;31.54;101105.19;5060074;28;45980;-62
2023/07/22 01:46:50;;;;;;;;;8.50;7.50;;;;;21.96;31.86;101106.22;5061098;28;45664;-62
2023/07/22 01:49:16;;;;;;;;;6.00;5.00;;;;;21.91;31.93;101107.34;5061455;28;45252;-62
2023/07/22 01:51:41;;;;;;;;;7.00;6.50;;;;;21.91;31.57;101103.78;5061220;28;45208;-62
2023/07/22 01:54:08;;;;;;;;;11.25;9.00;;;;;21.88;32.17;101102.16;5061092;28;46237;-62
2023/07/22 01:56:35;;;;;;;;;9.00;7.25;;;;;21.85;32.10;101093.47;5060761;28;45424;-62
2023/07/22 01:59:01;;;;;;;;;7.25;5.75;;;;;21.84;32.14;101100.59;5061077;28;45339;-62
2023/07/22 02:01:28;;;;;;;;;7.75;6.75;;;;;21.83;31.83;101100.69;5059647;28;45964;-62
2023/07/22 02:03:53;;;;;;;;;7.25;6.00;;;;;21.79;32.22;101089.31;5060969;28;47170;-62
2023/07/22 02:06:19;;;;;;;;;7.75;6.75;;;;;21.79;32.11;101100.00;5060772;28;45439;-62
2023/07/22 02:08:45;;;;;;;;;8.75;7.00;;;;;21.76;32.25;101094.84;5061111;28;45339;-62
2023/07/22 02:11:11;;;;;;;;;7.25;7.00;;;;;21.74;32.28;101096.72;5060564;28;45239;-62
2023/07/22 02:13:36;;;;;;;;;8.75;8.50;;;;;21.72;32.21;101102.16;5060498;28;46115;-63
2023/07/22 02:16:03;;;;;;;;;7.00;6.50;;;;;21.70;32.09;101100.53;5079489;28;45290;-62
2023/07/22 02:18:28;;;;;;;;;8.00;7.75;;;;;21.66;32.50;101097.16;5081500;28;45214;-62
2023/07/22 02:20:55;;;;;;;;;10.00;8.00;;;;;21.67;32.26;101101.56;5081019;28;45222;-62
2023/07/22 02:23:21;;;;;;;;;13.25;9.00;;;;;21.65;32.45;101099.91;5080678;28;46197;-62
2023/07/22 02:25:54;;;;;;;;;6.50;6.50;;;;;21.62;32.13;101100.94;5080511;28;45327;-62
2023/07/22 02:28:21;;;;;;;;;10.25;8.50;;;;;21.60;32.24;101105.50;5081061;28;45250;-63
2023/07/22 02:30:54;;;;;;;;;9.50;9.50;;;;;21.58;32.39;101097.59;5080007;28;45461;-62
2023/07/22 02:33:23;;;;;;;;;8.00;7.25;;;;;21.58;32.78;101102.06;5080619;27;46352;-62
2023/07/22 02:35:49;;;;;;;;;10.25;8.00;;;;;21.57;32.72;101105.66;5079480;27;45347;-62
2023/07/22 02:38:14;;;;;;;;;10.75;10.00;;;;;21.54;32.30;101105.81;5080051;28;45352;-62
2023/07/22 02:40:40;;;;;;;;;9.25;7.75;;;;;21.53;32.78;101101.41;5060200;28;45216;-62
2023/07/22 02:43:06;;;;;;;;;9.00;8.50;;;;;21.52;32.66;101108.56;5060405;28;45261;-62
2023/07/22 02:45:34;;;;;;;;;14.00;10.00;;;;;21.50;32.96;101102.44;5060486;28;45301;-62
2023/07/22 02:48:00;;;;;;;;;9.25;9.25;;;;;21.48;32.75;101104.31;5060242;28;45284;-62
2023/07/22 02:50:25;;;;;;;;;13.75;10.00;;;;;21.47;32.97;101096.41;5060324;28;45411;-62
2023/07/22 02:52:51;;;;;;;;;9.25;6.75;;;;;21.45;32.95;101093.81;5060272;28;45453;-62
2023/07/22 02:55:20;;;;;;;;;7.25;7.00;;;;;21.43;32.24;101101.03;5059075;28;45297;-62
2023/07/22 02:57:47;;;;;;;;;7.50;7.50;;;;;21.41;32.37;101097.59;5060372;28;45295;-62
2023/07/22 03:00:13;;;;;;;;;11.75;10.00;;;;;21.39;32.92;101102.16;5060329;28;45228;-62
2023/07/22 03:02:40;;;;;;;;;11.00;7.75;;;;;21.38;32.68;101098.63;5060069;28;46670;-62
2023/07/22 03:05:09;;;;;;;;;8.25;8.25;;;;;21.30;32.59;101084.81;5058709;28;45483;-62
2023/07/22 03:07:36;;;;;;;;;5.50;5.50;;;;;21.35;32.95;101101.47;5060075;28;45138;-62
2023/07/22 03:10:02;;;;;;;;;9.75;8.75;;;;;21.33;32.66;101102.50;5059679;28;45185;-62
2023/07/22 03:12:27;;;;;;;;;13.00;10.00;;;;;21.31;32.82;101102.56;5059650;28;45276;-62
2023/07/22 03:14:53;;;;;;;;;7.25;6.25;;;;;21.27;32.71;101096.53;5067435;28;45264;-62
2023/07/22 03:17:18;;;;;;;;;10.00;10.00;;;;;21.26;33.09;101100.16;5079062;28;45320;-62
2023/07/22 03:19:44;;;;;;;;;8.00;8.00;;;;;21.25;33.15;101113.59;5080371;28;45170;-62
2023/07/22 03:22:10;;;;;;;;;10.00;8.25;;;;;21.22;32.84;101106.59;5079915;28;46239;-62
2023/07/22 03:24:36;;;;;;;;;10.50;8.00;;;;;21.19;33.30;101111.25;5080208;28;45268;-62
2023/07/22 03:27:01;;;;;;;;;10.00;10.00;;;;;21.19;32.77;101111.25;5079629;28;45323;-62
2023/07/22 03:29:27;;;;;;;;;8.75;8.00;;;;;21.16;33.09;101104.25;5080367;28;45485;-62
2023/07/22 03:31:53;;;;;;;;;9.75;8.25;;;;;21.15;32.88;101115.88;5079944;28;46194;-62
2023/07/22 03:34:18;;;;;;;;;9.00;7.25;;;;;21.11;32.99;101107.16;5069672;28;45328;-62
2023/07/22 03:36:44;;;;;;;;;7.25;6.00;;;;;21.10;33.46;101115.25;5060004;28;45314;-62
2023/07/22 03:39:09;;;;;;;;;9.25;8.00;;;;;21.02;32.92;101105.00;5070915;28;45363;-62
2023/07/22 03:41:34;;;;;;;;;6.75;6.75;;;;;21.04;33.16;101112.91;5059384;28;45352;-63
2023/07/22 03:44:00;;;;;;;;;7.75;6.75;;;;;21.04;33.12;101108.44;5063168;28;45228;-62
2023/07/22 03:46:25;;;;;;;;;6.75;6.75;;;;;21.03;33.11;101117.41;5063347;28;45232;-62
2023/07/22 03:48:50;;;;;;;;;7.00;6.00;;;;;21.02;33.52;101120.13;5063276;28;45150;-62
2023/07/22 03:51:15;;;;;;;;;9.00;7.00;;;;;21.00;33.28;101120.22;5063013;28;45261;-62
2023/07/22 03:53:41;;;;;;;;;8.50;7.25;;;;;21.01;33.69;101118.44;5063151;28;45169;-63
2023/07/22 03:56:06;;;;;;;;;7.75;6.00;;;;;20.98;33.44;101119.47;5062803;28;45208;-63
2023/07/22 03:58:32;;;;;;;;;9.50;8.50;;;;;20.98;33.71;101116.78;5063222;28;45291;-62
2023/07/22 04:00:57;;;;;;;;;9.75;9.00;;;;;20.97;33.76;101114.16;5073666;28;47211;-62
2023/07/22 04:03:22;;;;;;;;;7.25;5.25;;;;;20.94;33.32;101118.75;5062650;28;54695;-62
2023/07/22 04:05:55;;;;;;;;;9.25;7.75;;;;;20.93;33.37;101113.50;5062845;28;45221;-62
2023/07/22 04:08:20;;;;;;;;;7.25;6.00;;;;;20.91;33.75;101115.38;5062957;28;45545;-62
2023/07/22 04:10:56;;;;;;;;;6.50;6.50;;;;;20.88;33.49;101111.06;5062250;28;45340;-62
2023/07/22 04:13:24;;;;;;;;;6.50;6.00;;;;;20.88;33.76;101115.50;5062720;28;45263;-62
2023/07/22 04:15:50;;;;;;;;;11.75;8.25;;;;;20.86;33.82;101112.06;5079574;28;45264;-62
2023/07/22 04:18:16;;;;;;;;;8.25;8.00;;;;;20.83;33.84;101112.22;5082946;28;45538;-62
2023/07/22 04:20:42;;;;;;;;;8.25;6.75;;;;;20.83;33.93;101105.09;5082697;28;46140;-62
2023/07/22 04:23:07;;;;;;;;;9.25;7.00;;;;;20.81;33.89;101114.97;5082857;27;45412;-62
2023/07/22 04:25:33;;;;;;;;;7.00;7.00;;;;;20.81;34.14;101114.13;5082640;28;45378;-62
2023/07/22 04:27:59;;;;;;;;;8.25;8.25;;;;;20.78;33.74;101110.66;5081571;28;45489;-62
2023/07/22 04:30:24;;;;;;;;;7.25;7.25;;;;;20.78;34.31;101102.66;5081417;28;46265;-62
2023/07/22 04:32:50;;;;;;;;;8.75;7.75;;;;;20.76;34.15;101112.53;5082894;28;45236;-62
2023/07/22 04:35:19;;;;;;;;;7.75;7.75;;;;;20.73;34.23;101107.34;5082726;28;45301;-62
2023/07/22 04:37:44;;;;;;;;;8.00;7.75;;;;;20.72;34.10;101108.28;5082666;28;45224;-62
2023/07/22 04:40:17;;;;;;;;;10.00;7.25;;;;;20.72;33.85;101112.78;5064729;28;46100;-62
2023/07/22 04:42:44;;;;;;;;;8.25;8.00;;;;;20.69;34.32;101113.78;5062185;28;45311;-62
2023/07/22 04:45:10;;;;;;;;;10.75;8.00;;;;;20.61;34.66;101108.78;5079216;28;45366;-62
2023/07/22 04:47:36;;;;;;;;;12.00;10.00;;;;;20.66;34.29;101121.06;5070886;28;45390;-62
2023/07/22 04:50:03;;;;;;;;;13.50;9.75;;;;;20.64;34.14;101118.50;5061971;28;47480;-62
2023/07/22 04:52:29;;;;;;;;;7.50;7.50;;;;;20.63;34.67;101125.63;5061869;28;45326;-62
2023/07/22 04:54:54;;;;;;;;;7.75;6.75;;;;;20.62;34.00;101123.03;5060198;28;45384;-62
2023/07/22 04:57:21;;;;;;;;;6.00;6.00;;;;;20.58;34.46;101124.97;5062018;28;46764;-62
2023/07/22 04:59:46;;;;;;;;;12.25;8.75;;;;;20.58;34.13;101118.78;5061957;28;45366;-62
2023/07/22 05:02:12;;;;;;;;;9.00;7.50;;;;;20.56;34.72;101120.66;5062158;28;45279;-62
2023/07/22 05:04:37;;;;;;;;;8.25;8.00;;;;;20.53;34.24;101126.16;5060743;28;45253;-62
2023/07/22 05:07:03;;;;;;;;;8.00;8.00;;;;;20.50;34.30;101124.50;5061758;28;45576;-62
2023/07/22 05:09:28;;;;;;;;;6.50;3.75;;;;;20.49;34.49;101119.22;5060484;28;46932;-62
2023/07/22 05:11:53;;;;;;;;;6.75;6.00;;;;;20.46;34.46;101123.81;5061537;28;47335;-62
2023/07/22 05:14:19;;;;;;;;;9.25;8.50;;;;;20.46;34.84;101128.25;5066243;28;45269;-62
2023/07/22 05:16:44;;;;;;;;;5.25;5.25;;;;;20.45;34.83;101118.53;5082079;28;45528;-62
2023/07/22 05:19:10;;;;;;;;;10.25;7.75;;;;;20.43;34.85;101121.28;5081941;28;47280;-62
2023/07/22 05:21:35;;;;;;;;;8.50;8.50;;;;;20.41;34.41;101125.81;5081740;28;45487;-62
2023/07/22 05:24:00;;;;;;;;;8.75;8.50;;;;;20.40;34.84;101125.91;5082115;28;45241;-62
2023/07/22 05:26:25;;;;;;;;;9.00;7.00;;;;;20.38;34.50;101117.13;5081674;27;45892;-62
2023/07/22 05:28:51;;;;;;;;;6.00;5.50;;;;;20.37;34.91;101121.56;5081614;28;51768;-62
2023/07/22 05:31:16;;;;;;;;;9.25;8.25;;;;;20.35;34.75;101123.47;5081903;28;45346;-62
2023/07/22 05:33:41;;;;;;;;;9.00;8.75;;;;;20.33;34.99;101122.66;5081916;28;45424;-62
2023/07/22 05:36:07;;;;;;;;;6.75;6.50;;;;;20.31;35.06;101124.53;5081720;28;45382;-62
2023/07/22 05:38:32;;;;;;;;;12.50;8.25;;;;;20.33;35.03;101125.34;5077561;28;45400;-62
2023/07/22 05:40:58;;;;;;;;;10.50;10.00;;;;;20.32;34.98;101120.94;5061147;28;45324;-59
2023/07/22 05:43:23;;;;;;;;;2.50;2.50;;;;;20.32;34.75;101123.59;5060184;28;45448;-59
2023/07/22 05:45:49;;;;;;;;;11.75;9.50;;;;;20.28;34.70;101114.03;5061352;28;45342;-62
2023/07/22 05:48:14;;;;;;;;;8.00;6.00;;;;;20.28;35.13;101119.38;5061005;28;46173;-62
2023/07/22 05:50:39;;;;;;;;;9.25;9.25;;;;;20.27;34.90;101121.16;5061382;28;45257;-62
2023/07/22 05:53:05;;;;;;;;;10.50;9.00;;;;;20.27;35.31;101120.31;5060911;28;45544;-62
2023/07/22 05:55:30;;;;;;;;;8.50;7.75;;;;;20.27;35.16;101112.28;5060956;28;45248;-62
2023/07/22 05:57:56;;;;;;;;;8.25;8.25;;;;;20.26;34.93;101114.13;5060992;28;45260;-62
2023/07/22 06:00:21;;;;;;;;;9.50;8.50;;;;;20.27;35.16;101118.47;5061278;28;45244;-62
2023/07/22 06:02:48;;;;;;;;;7.00;7.00;;;;;20.28;34.92;101116.69;5061144;28;45360;-62
2023/07/22 06:05:13;;;;;;;;;9.25;9.25;;;;;20.29;35.23;101118.44;5060068;28;45209;-62
2023/07/22 06:07:38;;;;;;;;;11.25;8.00;;;;;20.29;35.54;101115.75;5060715;28;46689;-62
2023/07/22 06:10:05;;;;;;;;;11.50;10.25;;;;;20.33;34.81;101122.66;5060732;28;45486;-62
2023/07/22 06:12:30;;;;;;;;;9.75;8.50;;;;;20.34;35.51;101124.41;5060761;28;45340;-63
2023/07/22 06:14:55;;;;;;;;;14.25;10.75;;;;;20.36;34.74;101127.00;5068726;28;45874;-62
2023/07/22 06:17:21;;;;;;;;;9.75;7.75;;;;;20.35;35.22;101126.16;5066157;28;47031;-64
2023/07/22 06:19:46;;;;;;;;;7.50;7.00;;;;;20.39;35.04;101137.50;5081274;28;45331;-62
2023/07/22 06:22:11;;;;;;;;;9.25;7.25;;;;;20.39;35.16;101121.50;5081185;28;45461;-62
2023/07/22 06:24:36;;;;;;;;;8.25;5.50;;;;;20.42;35.33;101129.38;5079496;28;47896;-62
2023/07/22 06:27:02;;;;;;;;;6.75;4.25;;;;;20.41;35.62;101125.81;5080558;28;45417;-62
2023/07/22 06:29:27;;;;;;;;;7.75;5.75;;;;;20.41;35.10;101120.47;5081098;28;45263;-62
2023/07/22 06:31:53;;;;;;;;;6.00;6.00;;;;;20.42;35.52;101127.53;5080984;28;45385;-62
2023/07/22 06:34:18;;;;;;;;;7.75;7.25;;;;;20.42;35.60;101118.69;5081038;28;45542;-62
2023/07/22 06:36:43;;;;;;;;;6.00;5.00;;;;;20.41;35.10;101125.81;5080539;28;45331;-63
2023/07/22 06:39:09;;;;;;;;;8.25;5.75;;;;;20.42;35.30;101130.22;5071880;27;45306;-62
2023/07/22 06:41:34;;;;;;;;;8.00;6.50;;;;;20.41;35.54;101125.81;5058905;28;45422;-62
2023/07/22 06:43:59;;;;;;;;;6.00;5.25;;;;;20.41;35.79;101127.63;5060734;28;45323;-62
2023/07/22 06:46:25;;;;;;;;;8.00;6.50;;;;;20.40;36.32;101126.78;5060093;28;46824;-63
2023/07/22 06:48:50;;;;;;;;;7.75;5.75;;;;;20.39;35.78;101119.72;5068130;28;45604;-60
2023/07/22 06:51:15;;;;;;;;;4.75;4.75;;;;;20.40;35.79;101117.88;5065091;28;45284;-60
2023/07/22 06:53:41;;;;;;;;;7.75;4.75;;;;;20.44;35.98;101122.16;5060719;28;45221;-63
2023/07/22 06:56:06;;;;;;;;;7.00;7.00;;;;;20.45;36.14;101124.75;5059599;28;51640;-62
2023/07/22 06:58:31;;;;;;;;;7.75;7.00;;;;;20.46;36.68;101128.25;5060556;28;45335;-62
2023/07/22 07:00:57;;;;;;;;;7.00;5.25;;;;;20.45;36.54;101132.75;5060223;28;45461;-63
2023/07/22 07:03:23;;;;;;;;;7.00;4.75;;;;;20.50;36.89;101126.31;5060409;28;45255;-62
2023/07/22 07:05:55;;;;;;;;;7.75;6.50;;;;;20.51;36.43;101134.22;5060010;28;46360;-62
2023/07/22 07:08:22;;;;;;;;;8.00;7.00;;;;;20.54;37.02;101131.44;5060161;28;45395;-63
2023/07/22 07:10:47;;;;;;;;;7.25;6.00;;;;;20.55;36.50;101132.28;5059782;28;45497;-62
2023/07/22 07:13:12;;;;;;;;;7.25;7.00;;;;;20.58;36.38;101132.16;5060138;28;45232;-62
2023/07/22 07:15:38;;;;;;;;;6.00;6.00;;;;;20.58;36.66;101130.31;5074544;28;51985;-62
2023/07/22 07:18:03;;;;;;;;;7.50;5.75;;;;;20.58;36.84;101127.66;5080390;28;45271;-62
2023/07/22 07:20:29;;;;;;;;;6.50;6.50;;;;;20.59;37.00;101133.84;5080312;28;45229;-62
2023/07/22 07:22:54;;;;;;;;;7.50;7.25;;;;;20.59;36.78;101128.50;5080222;28;45638;-62
2023/07/22 07:25:19;;;;;;;;;8.50;7.50;;;;;20.57;37.06;101117.91;5079670;28;46959;-62
2023/07/22 07:27:45;;;;;;;;;5.00;4.00;;;;;20.61;37.60;101127.47;5079872;28;45199;-62
2023/07/22 07:30:10;;;;;;;;;8.25;7.00;;;;;20.62;37.45;101129.22;5080369;27;45328;-62
2023/07/22 07:32:36;;;;;;;;;9.00;7.50;;;;;20.66;37.36;101134.41;5080302;28;45375;-62
2023/07/22 07:35:02;;;;;;;;;5.50;5.25;;;;;20.67;37.51;101137.00;5079721;28;46146;-62
2023/07/22 07:37:29;;;;;;;;;7.75;7.00;;;;;20.64;38.01;101134.50;5076904;28;45409;-62
2023/07/22 07:39:59;;;;;;;;;10.25;7.50;;;;;20.68;38.05;101140.53;5064730;27;45443;-62
2023/07/22 07:42:24;;;;;;;;;9.25;7.25;;;;;20.71;38.21;101137.75;5059730;28;45162;-62
2023/07/22 07:44:49;;;;;;;;;9.50;9.50;;;;;20.71;38.59;101135.94;5058263;28;45288;-62
2023/07/22 07:47:15;;;;;;;;;9.50;8.25;;;;;20.71;38.54;101135.94;5059756;28;45602;-62
2023/07/22 07:49:40;;;;;;;;;9.25;6.50;;;;;20.72;38.08;101153.69;5059754;28;45323;-62
2023/07/22 07:52:05;;;;;;;;;7.50;7.00;;;;;20.73;38.34;101141.22;5059691;28;45314;-62
2023/07/22 07:54:31;;;;;;;;;13.25;10.25;;;;;20.74;38.59;101149.16;5059051;28;45568;-61
2023/07/22 07:56:56;;;;;;;;;10.25;7.25;;;;;20.77;38.68;101156.13;5062561;28;45500;-61
2023/07/22 07:59:21;;;;;;;;;9.75;7.75;;;;;20.76;38.41;101154.41;5059380;28;45517;-61
2023/07/22 08:01:47;;;;;;;;;8.25;7.00;;;;;20.77;38.94;101156.13;5059430;28;45300;-62
2023/07/22 08:04:12;;;;;;;;;8.50;7.75;;;;;20.76;38.84;101144.56;5059256;28;45325;-61
2023/07/22 08:06:38;;;;;;;;;7.75;6.50;;;;;20.80;38.38;101155.13;5059456;28;45345;-62
2023/07/22 08:09:05;;;;;;;;;14.50;9.00;;;;;20.79;38.36;101146.22;5058201;28;45463;-61
2023/07/22 08:11:30;;;;;;;;;7.50;7.00;;;;;20.83;38.37;101150.50;5059041;28;45409;-62
2023/07/22 08:13:56;;;;;;;;;10.25;7.50;;;;;20.87;38.43;101148.53;5059944;28;45311;-61
2023/07/22 08:16:21;;;;;;;;;7.50;7.50;;;;;20.88;38.34;101143.09;5079529;28;45152;-62
2023/07/22 08:18:47;;;;;;;;;6.00;4.50;;;;;20.90;38.82;101146.53;5079486;27;45279;-61
2023/07/22 08:21:12;;;;;;;;;8.75;8.25;;;;;20.93;38.56;101143.72;5079519;28;45361;-67
2023/07/22 08:23:38;;;;;;;;;7.00;6.25;;;;;20.97;38.82;101141.75;5078954;28;45478;-67
2023/07/22 08:26:07;;;;;;;;;10.25;7.25;;;;;21.01;38.97;101146.00;5077788;28;45896;-67
2023/07/22 08:28:32;;;;;;;;;9.25;9.25;;;;;21.05;38.35;101139.53;5079422;28;45351;-68
2023/07/22 08:30:58;;;;;;;;;10.25;8.25;;;;;21.13;38.94;101146.31;5082676;27;45460;-67
2023/07/22 08:33:24;;;;;;;;;7.50;7.00;;;;;21.15;39.03;101139.09;5081435;28;45463;-68
2023/07/22 08:35:51;;;;;;;;;9.00;6.00;;;;;21.19;38.43;101137.97;5062427;28;45478;-67
2023/07/22 08:38:17;;;;;;;;;7.00;6.25;;;;;21.23;39.07;101131.50;5074856;28;45312;-67
2023/07/22 08:40:42;;;;;;;;;10.00;8.00;;;;;21.25;39.04;101125.13;5062207;28;45529;-67
2023/07/22 08:43:09;;;;;;;;;8.75;7.00;;;;;21.33;38.44;101122.03;5062122;28;45314;-67
2023/07/22 08:45:36;;;;;;;;;9.00;8.25;;;;;21.34;38.41;101121.09;5062193;28;45244;-69
2023/07/22 08:48:14;;;;;;;;;6.00;6.00;;;;;21.41;38.37;101127.00;5062025;28;45387;-66
2023/07/22 08:50:48;;;;;;;;;12.50;10.25;;;;;21.47;38.00;101124.00;5062181;28;45382;-67
2023/07/22 08:53:14;;;;;;;;;7.50;7.50;;;;;21.50;38.54;101117.63;5061983;28;45483;-67
2023/07/22 08:55:40;;;;;;;;;9.75;9.75;;;;;21.53;38.51;101117.44;5061663;28;45333;-67
2023/07/22 08:58:09;;;;;;;;;7.00;7.00;;;;;21.57;37.92;101119.91;5062153;28;45240;-66
2023/07/22 09:00:35;;;;;;;;;9.50;6.50;;;;;21.61;38.20;101115.28;5061941;28;45542;-67
2023/07/22 09:03:01;;;;;;;;;10.00;7.00;;;;;21.65;38.51;101115.97;5061935;28;45266;-66
2023/07/22 09:05:27;;;;;;;;;12.00;6.25;;;;;21.68;38.48;101119.31;5061944;28;45358;-67
2023/07/22 09:07:53;;;;;;;;;6.75;5.00;;;;;21.71;38.22;101112.94;5061925;28;45363;-67
2023/07/22 09:10:19;;;;;;;;;8.75;7.50;;;;;21.74;37.79;101116.31;5061542;28;45375;-66
2023/07/22 09:12:45;;;;;;;;;5.25;3.50;;;;;21.76;38.07;101118.91;5059818;28;46639;-67
2023/07/22 09:15:12;;;;;;;;;8.75;7.25;;;;;21.81;38.14;101114.16;5071962;28;45207;-65
2023/07/22 09:17:39;;;;;;;;;6.00;6.00;;;;;21.84;37.95;101121.16;5082123;28;45303;-65
2023/07/22 09:20:05;;;;;;;;;10.00;8.00;;;;;21.86;38.08;101114.78;5082077;28;45230;-67
2023/07/22 09:22:32;;;;;;;;;7.25;7.25;;;;;21.88;37.48;101112.00;5081647;27;45411;-66
2023/07/22 09:25:19;;;;;;;;;8.75;7.25;;;;;21.91;37.57;101107.34;5081321;28;45558;-64
2023/07/22 09:27:52;;;;;;;;;5.00;5.00;;;;;21.93;37.38;101112.59;5081960;27;45461;-66
2023/07/22 09:30:28;;;;;;;;;11.75;10.25;;;;;21.98;37.29;101115.03;5081717;28;45317;-64
2023/07/22 09:32:56;;;;;;;;;7.00;7.00;;;;;22.00;37.20;101100.63;5081530;28;46572;-72
2023/07/22 09:35:24;;;;;;;;;5.25;5.25;;;;;22.02;37.05;101098.69;5081443;28;45251;-65
2023/07/22 09:37:49;;;;;;;;;6.50;5.75;;;;;22.05;37.31;101101.22;5081942;28;45322;-65
2023/07/22 09:40:19;;;;;;;;;5.50;5.50;;;;;22.07;37.21;101093.09;5075171;28;45256;-66
2023/07/22 09:42:56;;;;;;;;;5.50;5.50;;;;;22.13;36.93;101099.91;5061214;28;45291;-65
2023/07/22 09:45:23;;;;;;;;;8.00;8.00;;;;;22.18;37.25;101109.41;5061174;28;45331;-66
2023/07/22 09:47:50;;;;;;;;;7.75;7.50;;;;;22.18;36.81;101090.66;5061315;28;45311;-64
2023/07/22 09:50:23;;;;;;;;;5.25;5.25;;;;;22.25;36.76;101088.50;5060070;28;45605;-61
2023/07/22 09:52:52;;;;;;;;;6.00;5.75;;;;;;;;5061081;28;45960;-69
2023/07/22 09:55:20;;;;;;;;;9.00;7.25;;;;;22.34;37.04;101085.28;5060816;28;45377;-67
2023/07/22 09:57:57;;;;;;;;;5.50;5.00;;;;;22.39;36.79;101080.56;5061094;28;45150;-63
2023/07/22 10:00:47;;;;;;;;;8.75;8.00;;;;;22.45;36.75;101091.84;5059716;28;45478;-61
2023/07/22 10:03:15;;;;;;;;;8.25;8.00;;;;;22.50;36.80;101081.75;5060765;28;46165;-62
2023/07/22 10:05:43;;;;;;;;;8.00;7.75;;;;;22.55;36.51;101079.66;5060952;28;45481;-62
2023/07/22 10:08:10;;;;;;;;;6.50;6.50;;;;;22.64;36.58;101080.91;5066826;28;45260;-63
2023/07/22 10:10:38;;;;;;;;;5.50;5.25;;;;;22.71;37.09;101085.81;5067077;28;45332;-66
2023/07/22 10:13:04;;;;;;;;;6.50;6.50;;;;;22.79;36.31;101084.50;5060713;28;46353;-65
2023/07/22 10:15:35;;;;;;;;;6.00;5.00;;;;;22.86;36.45;101077.81;5074550;28;45340;-67
2023/07/22 10:18:02;;;;;;;;;7.75;7.75;;;;;22.94;36.29;101080.03;5081160;28;45497;-66
2023/07/22 10:20:28;;;;;;;;;8.50;6.25;;;;;23.01;36.29;101076.88;5080834;28;45507;-62
2023/07/22 10:22:55;;;;;;;;;6.25;6.00;;;;;23.09;36.35;101079.06;5079179;28;45577;-63
2023/07/22 10:25:21;;;;;;;;;10.00;8.00;;;;;23.20;36.34;101075.78;5080591;28;45388;-63
2023/07/22 10:27:48;;;;;;;;;7.00;6.00;;;;;23.30;36.25;101076.06;5081137;28;45212;-63
2023/07/22 10:30:16;;;;;;;;;9.75;8.75;;;;;23.37;36.58;101080.94;5080678;28;45469;-71
2023/07/22 10:32:46;;;;;;;;;10.00;8.50;;;;;23.50;36.17;101082.84;5080884;28;45438;-70
2023/07/22 10:35:23;;;;;;;;;8.25;7.25;;;;;23.59;36.02;101076.03;5080581;28;45302;-71
2023/07/22 10:37:49;;;;;;;;;6.75;5.25;;;;;23.66;35.97;101069.31;5080881;28;45406;-71
2023/07/22 10:40:24;;;;;;;;;6.25;5.00;;;;;23.77;35.81;101074.00;5071307;28;45482;-71
2023/07/22 10:43:00;;;;;;;;;8.00;6.75;;;;;23.85;35.92;101064.47;5068441;28;45269;-70
2023/07/22 10:45:25;;;;;;;;;10.75;10.75;;;;;23.93;36.17;101058.63;5060388;28;45619;-70
2023/07/22 10:48:02;;;;;;;;;15.50;13.00;;;;;24.08;35.78;101063.97;5060485;28;45313;-70
2023/07/22 10:50:46;;;;;;;;;9.00;7.25;;;;;24.21;35.87;101064.84;5080407;28;45387;-70
2023/07/22 10:53:29;;;;;;;;;4.00;4.00;;;;;24.42;35.80;101065.25;5080365;27;45550;-69
2023/07/22 10:56:06;;;;;;;;;5.25;5.25;;;;;24.60;35.75;101059.59;5080073;28;45237;-69
2023/07/22 10:58:44;;;;;;;;;7.75;6.00;;;;;24.76;35.54;101060.28;5080716;28;45357;-69
2023/07/22 11:01:29;;;;;;;;;5.25;5.25;;;;;24.91;35.43;101044.91;5080239;28;45540;-61
2023/07/22 11:04:30;;;;;;;;;5.00;4.00;;;;;25.06;35.24;101052.88;5080149;27;45284;-60
2023/07/22 11:06:57;;;;;;;;;7.00;6.75;;;;;25.14;35.36;101040.63;5080156;28;45285;-60
2023/07/22 11:09:34;;;;;;;;;6.25;5.50;;;;;25.20;34.58;101050.06;5078820;28;45339;-62
2023/07/22 11:12:02;;;;;;;;;9.00;7.50;;;;;25.21;34.88;101046.41;5076490;28;45398;-61
2023/07/22 11:14:32;;;;;;;;;6.00;6.00;;;;;25.23;34.16;101038.22;5065079;28;46317;-63
2023/07/22 11:17:00;;;;;;;;;6.50;6.00;;;;;25.21;34.64;101024.06;5078672;27;45499;-63
2023/07/22 11:19:26;;;;;;;;;9.00;9.00;;;;;25.25;34.32;101031.78;5080037;28;45256;-62
2023/07/22 11:21:53;;;;;;;;;8.00;7.75;;;;;25.28;34.23;101028.88;5079933;28;45291;-63
2023/07/22 11:24:20;;;;;;;;;7.00;5.50;;;;;25.30;34.30;101045.75;5079893;28;45399;-63